createdAt,value
2023-03-22T00:02:04.553Z,10.03
2023-03-22T00:04:31.554Z,9.96
2023-03-22T00:06:58.207Z,9.93
2023-03-22T00:09:24.909Z,9.91
2023-03-22T00:11:51.555Z,9.74
2023-03-22T00:14:19.179Z,9.79
2023-03-22T00:16:49.452Z,9.77
2023-03-22T00:19:17.518Z,9.75
2023-03-22T00:21:44.768Z,9.68
2023-03-22T00:24:12.004Z,9.66
2023-03-22T00:26:38.964Z,9.47
2023-03-22T00:29:06.013Z,9.55
2023-03-22T00:31:34.220Z,9.45
2023-03-22T00:34:00.969Z,9.52
2023-03-22T00:36:27.704Z,9.50
2023-03-22T00:38:54.367Z,9.52
2023-03-22T00:41:23.527Z,9.65
2023-03-22T00:43:51.726Z,9.68
2023-03-22T00:46:20.890Z,9.67
2023-03-22T00:48:48.298Z,9.57
2023-03-22T00:51:15.747Z,9.50
2023-03-22T00:53:44.019Z,9.40
2023-03-22T00:56:15.884Z,9.30
2023-03-22T00:58:55.442Z,9.14
2023-03-22T01:01:22.317Z,9.14
2023-03-22T01:03:50.756Z,9.07
2023-03-22T01:06:18.020Z,9.02
2023-03-22T01:08:45.559Z,9.01
2023-03-22T01:11:12.952Z,9.08
2023-03-22T01:13:41.998Z,9.09
2023-03-22T01:16:10.109Z,9.14
2023-03-22T01:18:37.027Z,9.11
2023-03-22T01:21:04.335Z,9.18
2023-03-22T01:23:31.921Z,9.26
2023-03-22T01:25:58.995Z,9.25
2023-03-22T01:28:27.315Z,9.15
2023-03-22T01:30:55.799Z,9.12
2023-03-22T01:33:22.907Z,8.99
2023-03-22T01:35:51.065Z,8.91
2023-03-22T01:38:18.052Z,8.88
2023-03-22T01:41:02.661Z,8.83
2023-03-22T01:43:31.946Z,8.74
2023-03-22T01:45:59.359Z,8.66
2023-03-22T01:48:35.194Z,8.48
2023-03-22T01:51:07.224Z,8.60
2023-03-22T01:53:45.875Z,8.49
2023-03-22T01:56:13.435Z,8.42
2023-03-22T01:58:42.137Z,8.43
2023-03-22T02:01:11.629Z,8.44
2023-03-22T02:04:04.812Z,8.36
2023-03-22T02:06:32.483Z,8.28
2023-03-22T02:09:07.903Z,8.22
2023-03-22T02:11:41.719Z,8.25
2023-03-22T02:14:36.814Z,8.21
2023-03-22T02:17:59.702Z,8.20
2023-03-22T02:20:48.309Z,8.22
2023-03-22T02:23:21.186Z,8.24
2023-03-22T02:26:18.228Z,8.29
2023-03-22T02:28:47.811Z,8.29
2023-03-22T02:31:36.613Z,8.27
2023-03-22T02:34:48.304Z,8.19
2023-03-22T02:37:49.331Z,8.15
2023-03-22T02:40:18.647Z,8.07
2023-03-22T02:42:59.108Z,8.01
2023-03-22T02:45:34.891Z,7.96
2023-03-22T02:48:11.906Z,8.00
2023-03-22T02:50:46.604Z,8.01
2023-03-22T02:53:21.050Z,8.08
2023-03-22T02:56:04.294Z,8.14
2023-03-22T02:59:03.758Z,8.13
2023-03-22T03:01:56.296Z,8.03
2023-03-22T03:04:33.145Z,8.01
2023-03-22T03:07:09.385Z,8.06
2023-03-22T03:09:40.052Z,7.92
2023-03-22T03:12:18.706Z,8.06
2023-03-22T03:14:45.668Z,7.96
2023-03-22T03:17:38.023Z,7.71
2023-03-22T03:20:30.041Z,7.46
2023-03-22T03:23:13.842Z,7.30
2023-03-22T03:26:06.728Z,7.13
2023-03-22T03:28:47.725Z,6.96
2023-03-22T03:31:29.829Z,6.92
2023-03-22T03:34:05.542Z,6.83
2023-03-22T03:36:37.835Z,6.80
2023-03-22T03:39:07.823Z,6.81
2023-03-22T03:41:35.086Z,6.73
2023-03-22T03:44:03.771Z,6.66
2023-03-22T03:46:30.796Z,6.68
2023-03-22T03:48:58.552Z,6.81
2023-03-22T03:51:27.371Z,6.83
2023-03-22T03:53:54.098Z,6.74
2023-03-22T03:56:21.944Z,6.73
2023-03-22T03:58:49.864Z,6.78
2023-03-22T04:01:19.651Z,6.80
2023-03-22T04:04:09.570Z,6.85
2023-03-22T04:06:43.976Z,6.90
2023-03-22T04:09:16.232Z,6.89
2023-03-22T04:11:46.530Z,6.80
2023-03-22T04:14:14.603Z,6.75
2023-03-22T04:16:41.601Z,6.75
2023-03-22T04:19:11.628Z,6.68
2023-03-22T04:21:38.894Z,6.60
2023-03-22T04:24:06.746Z,6.51
2023-03-22T04:26:36.889Z,6.48
2023-03-22T04:29:16.307Z,6.39
2023-03-22T04:31:48.095Z,6.28
2023-03-22T04:34:29.316Z,6.37
2023-03-22T04:37:02.734Z,6.20
2023-03-22T04:39:53.369Z,6.18
2023-03-22T04:42:38.514Z,6.24
2023-03-22T04:45:29.271Z,6.24
2023-03-22T04:48:00.928Z,6.29
2023-03-22T04:50:28.268Z,6.31
2023-03-22T04:52:59.485Z,6.35
2023-03-22T04:55:27.718Z,6.28
2023-03-22T04:57:54.809Z,6.31
2023-03-22T05:00:24.019Z,6.39
2023-03-22T05:02:51.568Z,6.43
2023-03-22T05:05:29.157Z,6.44
2023-03-22T05:07:56.438Z,6.53
2023-03-22T05:10:24.296Z,6.53
2023-03-22T05:12:51.148Z,6.50
2023-03-22T05:15:22.366Z,6.57
2023-03-22T05:17:51.007Z,6.58
2023-03-22T05:20:17.737Z,6.50
2023-03-22T05:22:56.899Z,6.54
2023-03-22T05:25:25.846Z,6.53
2023-03-22T05:27:54.261Z,6.38
2023-03-22T05:30:35.011Z,6.33
2023-03-22T05:33:14.256Z,6.18
2023-03-22T05:35:45.485Z,6.11
2023-03-22T05:38:12.260Z,6.12
2023-03-22T05:40:45.009Z,6.23
2023-03-22T05:43:12.322Z,6.30
2023-03-22T05:45:43.516Z,6.27
2023-03-22T05:48:23.365Z,6.42
2023-03-22T05:50:50.190Z,6.59
2023-03-22T05:53:17.527Z,6.69
2023-03-22T05:56:00.842Z,6.90
2023-03-22T05:58:31.717Z,7.04
2023-03-22T06:01:13.183Z,7.09
2023-03-22T06:03:46.100Z,7.24
2023-03-22T06:06:20.582Z,7.31
2023-03-22T06:09:07.036Z,7.40
2023-03-22T06:11:41.426Z,7.44
2023-03-22T06:14:08.456Z,7.46
2023-03-22T06:16:53.822Z,7.50
2023-03-22T06:19:20.514Z,7.47
2023-03-22T06:21:47.769Z,7.56
2023-03-22T06:24:16.411Z,7.58
2023-03-22T06:26:43.083Z,7.71
2023-03-22T06:29:09.757Z,7.89
2023-03-22T06:31:36.961Z,8.04
2023-03-22T06:34:06.074Z,8.10
2023-03-22T06:36:39.210Z,8.30
2023-03-22T06:39:12.515Z,8.53
2023-03-22T06:41:42.955Z,8.79
2023-03-22T06:44:09.729Z,9.03
2023-03-22T06:46:59.219Z,9.30
2023-03-22T06:49:44.420Z,9.56
2023-03-22T06:52:17.703Z,9.57
2023-03-22T06:54:44.613Z,9.82
2023-03-22T06:57:11.722Z,10.05
2023-03-22T06:59:38.599Z,10.46
2023-03-22T07:02:05.314Z,10.74
2023-03-22T07:04:33.294Z,10.80
2023-03-22T07:06:59.987Z,11.07
2023-03-22T07:09:27.415Z,11.21
2023-03-22T07:11:57.638Z,11.45
2023-03-22T07:14:24.605Z,11.81
2023-03-22T07:16:58.488Z,11.90
2023-03-22T07:19:27.812Z,12.10
2023-03-22T07:21:55.407Z,12.26
2023-03-22T07:24:23.124Z,12.39
2023-03-22T07:26:50.346Z,12.49
2023-03-22T07:29:22.025Z,12.44
2023-03-22T07:31:49.211Z,12.56
2023-03-22T07:34:22.204Z,12.70
2023-03-22T07:37:11.630Z,12.86
2023-03-22T07:39:40.775Z,12.92
2023-03-22T07:42:07.558Z,13.25
2023-03-22T07:44:54.474Z,13.33
2023-03-22T07:47:39.502Z,13.22
2023-03-22T07:50:33.028Z,13.26
2023-03-22T07:53:04.030Z,13.46
2023-03-22T07:55:31.622Z,13.52
2023-03-22T07:57:58.264Z,13.58
2023-03-22T08:00:25.119Z,13.84
2023-03-22T08:03:14.592Z,14.14
2023-03-22T08:06:07.757Z,14.54
2023-03-22T08:08:36.991Z,14.68
2023-03-22T08:11:06.461Z,14.70
2023-03-22T08:13:33.727Z,14.74
2023-03-22T08:16:01.046Z,14.48
2023-03-22T08:18:27.892Z,14.53
2023-03-22T08:20:56.649Z,14.84
2023-03-22T08:23:40.455Z,15.25
2023-03-22T08:26:45.651Z,15.74
2023-03-22T08:29:20.812Z,15.83
2023-03-22T08:31:47.853Z,15.95
2023-03-22T08:34:14.608Z,16.22
2023-03-22T08:36:41.832Z,16.41
2023-03-22T08:39:09.563Z,16.41
2023-03-22T08:41:44.697Z,16.93
2023-03-22T08:44:11.510Z,17.05
2023-03-22T08:46:38.247Z,17.05
2023-03-22T08:49:05.013Z,17.13
2023-03-22T08:51:35.719Z,16.98
2023-03-22T08:54:16.733Z,16.75
2023-03-22T08:57:03.509Z,17.24
2023-03-22T09:00:06.826Z,17.28
2023-03-22T09:02:43.547Z,17.36
2023-03-22T09:05:10.507Z,17.66
2023-03-22T09:07:38.820Z,17.71
2023-03-22T09:10:12.297Z,17.59
2023-03-22T09:12:42.678Z,17.36
2023-03-22T09:15:10.408Z,17.38
2023-03-22T09:17:40.458Z,17.48
2023-03-22T09:20:12.787Z,17.90
2023-03-22T09:22:41.981Z,17.91
2023-03-22T09:25:12.626Z,17.98
2023-03-22T09:27:42.104Z,17.95
2023-03-22T09:30:09.259Z,18.30
2023-03-22T09:32:36.052Z,18.49
2023-03-22T09:35:04.727Z,18.39
2023-03-22T09:37:39.314Z,18.34
2023-03-22T09:40:07.912Z,18.22
2023-03-22T09:42:51.285Z,18.30
2023-03-22T09:45:32.245Z,18.37
2023-03-22T09:47:59.725Z,18.13
2023-03-22T09:50:29.986Z,18.55
2023-03-22T09:52:57.780Z,18.90
2023-03-22T09:55:41.866Z,19.18
2023-03-22T09:58:29.709Z,17.97
2023-03-22T10:00:59.524Z,17.66
2023-03-22T10:03:43.983Z,17.68
2023-03-22T10:06:22.832Z,17.78
2023-03-22T10:09:04.702Z,17.96
2023-03-22T10:12:16.925Z,18.31
2023-03-22T10:14:51.676Z,17.69
2023-03-22T10:17:23.524Z,17.71
2023-03-22T10:20:05.473Z,17.89
2023-03-22T10:22:40.786Z,18.22
2023-03-22T10:25:09.501Z,18.87
2023-03-22T10:27:37.424Z,19.20
2023-03-22T10:30:18.260Z,19.59
2023-03-22T10:33:12.219Z,19.41
2023-03-22T10:35:39.323Z,19.10
2023-03-22T10:38:09.509Z,18.54
2023-03-22T10:40:37.562Z,18.86
2023-03-22T10:43:15.926Z,18.95
2023-03-22T10:45:43.370Z,18.94
2023-03-22T10:48:30.317Z,19.44
2023-03-22T10:50:58.931Z,19.07
2023-03-22T10:53:45.679Z,19.15
2023-03-22T10:56:19.004Z,19.44
2023-03-22T10:58:46.379Z,19.09
2023-03-22T11:01:25.517Z,19.14
2023-03-22T11:03:57.121Z,19.17
2023-03-22T11:06:29.905Z,18.98
2023-03-22T11:09:23.977Z,19.45
2023-03-22T11:11:56.806Z,20.02
2023-03-22T11:14:31.822Z,20.38
2023-03-22T11:17:02.575Z,20.05
2023-03-22T11:19:34.068Z,19.46
2023-03-22T11:22:02.750Z,19.55
2023-03-22T11:24:32.039Z,20.00
2023-03-22T11:27:29.655Z,20.41
2023-03-22T11:30:21.739Z,20.50
2023-03-22T11:32:49.478Z,20.28
2023-03-22T11:35:17.817Z,20.02
2023-03-22T11:37:47.501Z,19.65
2023-03-22T11:40:20.468Z,19.76
2023-03-22T11:42:49.396Z,19.61
2023-03-22T11:45:25.696Z,19.37
2023-03-22T11:47:53.018Z,19.32
2023-03-22T11:50:27.922Z,19.28
2023-03-22T11:52:54.974Z,18.92
2023-03-22T11:55:21.695Z,18.77
2023-03-22T11:57:50.280Z,19.32
2023-03-22T12:00:22.076Z,19.57
2023-03-22T12:02:50.372Z,19.74
2023-03-22T12:05:27.341Z,20.19
2023-03-22T12:08:17.451Z,20.40
2023-03-22T12:10:48.226Z,20.79
2023-03-22T12:13:25.598Z,20.55
2023-03-22T12:16:00.953Z,20.56
2023-03-22T12:18:38.872Z,20.24
2023-03-22T12:21:05.863Z,19.57
2023-03-22T12:23:37.543Z,19.42
2023-03-22T12:26:16.391Z,20.42
2023-03-22T12:29:05.048Z,21.03
2023-03-22T12:31:44.546Z,21.03
2023-03-22T12:34:21.176Z,20.73
2023-03-22T12:36:52.620Z,20.46
2023-03-22T12:39:35.181Z,20.29
2023-03-22T12:42:21.961Z,20.25
2023-03-22T12:45:04.058Z,20.25
2023-03-22T12:47:51.240Z,19.72
2023-03-22T12:50:28.891Z,19.60
2023-03-22T12:52:57.054Z,19.80
2023-03-22T12:55:33.755Z,19.93
2023-03-22T12:58:00.743Z,20.05
2023-03-22T13:00:36.523Z,20.08
2023-03-22T13:03:18.743Z,19.82
2023-03-22T13:05:58.735Z,19.51
2023-03-22T13:08:25.591Z,19.09
2023-03-22T13:11:03.198Z,19.39
2023-03-22T13:13:29.786Z,19.81
2023-03-22T13:16:02.580Z,20.52
2023-03-22T13:18:35.685Z,20.96
2023-03-22T13:21:32.561Z,21.10
2023-03-22T13:24:10.212Z,21.40
2023-03-22T13:26:47.678Z,21.14
2023-03-22T13:29:32.713Z,21.09
2023-03-22T13:32:06.077Z,20.60
2023-03-22T13:34:48.804Z,20.42
2023-03-22T13:37:31.180Z,20.41
2023-03-22T13:40:02.397Z,20.52
2023-03-22T13:42:37.974Z,20.73
2023-03-22T13:45:09.914Z,20.81
2023-03-22T13:47:46.898Z,20.62
2023-03-22T13:50:22.530Z,20.28
2023-03-22T13:52:59.687Z,20.40
2023-03-22T13:55:46.887Z,20.52
2023-03-22T13:58:44.731Z,20.83
2023-03-22T14:01:21.162Z,21.04
2023-03-22T14:03:50.366Z,21.10
2023-03-22T14:06:35.328Z,20.78
2023-03-22T14:09:20.917Z,20.46
2023-03-22T14:11:57.022Z,20.27
2023-03-22T14:14:29.925Z,19.84
2023-03-22T14:17:13.292Z,19.57
2023-03-22T14:19:42.052Z,19.66
